Time;durP1;ratioP1;P1;durP2;ratioP2;P2;SDS_P1;SDS_P2;PMS_P1;PMS_P2;Temp;Humidity;BMP_temperature;BMP_pressure;BME280_temperature;BME280_humidity;BME280_pressure;Samples;Min_cycle;Max_cycle;Signal;HPM_P1;HPM_P2
2023/01/25 00:01:42;;;;;;;0.50;0.50;;;3.00;99.90;;;;;;4430043;32;20078;-74
2023/01/25 00:04:08;;;;;;;1.83;1.00;;;3.10;99.90;;;;;;4416806;32;20135;-74
2023/01/25 00:06:34;;;;;;;4.22;1.95;;;3.10;99.90;;;;;;4430677;32;20073;-74
2023/01/25 00:08:59;;;;;;;1.00;0.82;;;3.10;99.90;;;;;;4433424;32;20069;-73
2023/01/25 00:11:25;;;;;;;5.85;1.52;;;3.10;99.90;;;;;;4419736;32;20081;-73
2023/01/25 00:13:53;;;;;;;1.00;1.00;;;3.00;99.90;;;;;;4418031;32;20180;-73
2023/01/25 00:16:19;;;;;;;1.15;1.05;;;3.00;99.90;;;;;;4427665;32;20078;-73
2023/01/25 00:18:45;;;;;;;1.35;1.25;;;2.90;99.90;;;;;;4427369;32;20098;-73
2023/01/25 00:21:15;;;;;;;7.85;0.95;;;2.90;99.90;;;;;;4429958;32;20073;-73
2023/01/25 00:23:41;;;;;;;0.60;0.60;;;2.80;99.90;;;;;;4432948;32;20081;-73
2023/01/25 00:26:06;;;;;;;1.30;1.20;;;2.90;99.90;;;;;;4431997;32;20536;-73
2023/01/25 00:28:31;;;;;;;0.85;0.80;;;3.00;99.90;;;;;;4429784;32;20551;-74
2023/01/25 00:30:59;;;;;;;0.68;0.68;;;3.00;99.90;;;;;;4428561;32;20089;-74
2023/01/25 00:33:37;;;;;;;1.12;0.65;;;3.10;99.90;;;;;;4420452;32;20081;-74
2023/01/25 00:36:32;;;;;;;2.28;0.73;;;3.10;99.90;;;;;;4428389;32;20069;-73
2023/01/25 00:38:58;;;;;;;1.17;1.10;;;3.10;99.90;;;;;;4419999;32;20132;-73
2023/01/25 00:41:25;;;;;;;2.17;1.02;;;3.10;99.90;;;;;;4417863;32;20472;-74
2023/01/25 00:43:50;;;;;;;1.52;1.12;;;3.10;99.90;;;;;;4416792;32;20207;-74
2023/01/25 00:46:17;;;;;;;0.85;0.80;;;3.10;99.90;;;;;;4431124;32;20124;-74
2023/01/25 00:48:42;;;;;;;0.75;0.75;;;3.10;99.90;;;;;;4431766;32;20211;-73
2023/01/25 00:51:08;;;;;;;0.93;0.93;;;3.10;99.90;;;;;;4434793;32;20085;-74
2023/01/25 00:53:33;;;;;;;0.80;0.80;;;3.10;99.90;;;;;;4428283;32;20117;-73
2023/01/25 00:55:59;;;;;;;1.70;1.42;;;3.10;99.90;;;;;;4430371;32;20074;-74
2023/01/25 00:58:25;;;;;;;1.15;1.12;;;3.00;99.90;;;;;;4431258;32;20085;-73
2023/01/25 01:00:53;;;;;;;40.38;1.67;;;3.00;99.90;;;;;;4430673;32;20160;-73
2023/01/25 01:03:18;;;;;;;1.92;1.42;;;3.00;99.90;;;;;;4420916;32;20434;-73
2023/01/25 01:05:44;;;;;;;1.55;1.33;;;3.00;99.90;;;;;;4429233;32;20077;-73
2023/01/25 01:08:11;;;;;;;1.05;1.02;;;3.00;99.90;;;;;;4430118;32;20134;-74
2023/01/25 01:10:36;;;;;;;1.37;1.27;;;3.00;99.90;;;;;;4424266;32;20074;-74
2023/01/25 01:13:03;;;;;;;1.12;0.95;;;2.90;99.90;;;;;;4413654;32;20505;-73
2023/01/25 01:15:28;;;;;;;0.50;0.50;;;2.90;99.90;;;;;;4422547;32;20128;-73
2023/01/25 01:17:54;;;;;;;2.03;1.60;;;2.90;99.90;;;;;;4431493;32;20820;-74
2023/01/25 01:20:20;;;;;;;1.05;0.98;;;2.90;99.90;;;;;;4430311;32;20161;-73
2023/01/25 01:22:45;;;;;;;0.75;0.73;;;2.90;99.90;;;;;;4430905;32;20518;-73
2023/01/25 01:25:12;;;;;;;4.18;1.48;;;2.90;99.90;;;;;;4428672;32;20078;-74
2023/01/25 01:27:38;;;;;;;3.85;1.98;;;3.00;99.90;;;;;;4433520;32;20068;-74
2023/01/25 01:30:04;;;;;;;0.40;0.40;;;2.90;99.90;;;;;;4427371;32;20082;-75
2023/01/25 01:32:30;;;;;;;3.83;0.88;;;2.90;99.90;;;;;;4426100;32;20343;-74
2023/01/25 01:34:57;;;;;;;1.15;1.08;;;2.90;99.90;;;;;;4422574;32;20403;-74
2023/01/25 01:37:22;;;;;;;1.02;1.02;;;2.90;99.90;;;;;;4428987;32;20117;-74
2023/01/25 01:39:48;;;;;;;1.48;1.37;;;2.90;99.90;;;;;;4428478;32;20513;-74
2023/01/25 01:42:13;;;;;;;1.02;0.95;;;2.90;99.90;;;;;;4415822;32;20065;-74
2023/01/25 01:44:54;;;;;;;1.73;1.62;;;2.80;99.90;;;;;;4414486;32;20573;-74
2023/01/25 01:47:27;;;;;;;1.62;0.77;;;2.90;99.90;;;;;;4415878;32;20165;-73
2023/01/25 01:49:59;;;;;;;1.73;0.90;;;2.90;99.90;;;;;;4428141;32;20135;-73
2023/01/25 01:52:29;;;;;;;3.75;1.27;;;2.90;99.90;;;;;;4431949;32;20219;-73
2023/01/25 01:55:01;;;;;;;6.78;1.73;;;2.90;99.90;;;;;;4431231;32;20541;-73
2023/01/25 01:57:36;;;;;;;1.37;1.23;;;2.90;99.90;;;;;;4432912;32;20097;-73
2023/01/25 02:00:15;;;;;;;0.52;0.52;;;2.90;99.90;;;;;;4430504;32;20127;-75
2023/01/25 02:02:41;;;;;;;2.37;1.83;;;3.00;99.90;;;;;;4422230;32;20210;-74
2023/01/25 02:05:13;;;;;;;15.98;1.73;;;3.00;99.90;;;;;;4422996;32;20399;-74
2023/01/25 02:07:39;;;;;;;1.10;1.00;;;2.90;99.90;;;;;;4428571;32;20069;-74
2023/01/25 02:10:07;;;;;;;1.50;1.27;;;2.90;99.90;;;;;;4424774;32;20454;-75
2023/01/25 02:12:35;;;;;;;12.13;1.25;;;2.80;99.90;;;;;;4411306;32;20088;-73
2023/01/25 02:15:01;;;;;;;1.33;1.23;;;2.90;99.90;;;;;;4417375;32;20090;-72
2023/01/25 02:17:29;;;;;;;1.25;1.17;;;2.80;99.90;;;;;;4430905;32;20082;-72
2023/01/25 02:20:01;;;;;;;1.00;1.00;;;2.80;99.90;;;;;;4428861;32;20081;-73
2023/01/25 02:22:44;;;;;;;8.68;1.90;;;2.80;99.90;;;;;;4430924;32;20064;-73
2023/01/25 02:25:12;;;;;;;2.67;1.37;;;2.80;99.90;;;;;;4428626;32;21390;-74
2023/01/25 02:27:42;;;;;;;0.75;0.75;;;2.70;99.90;;;;;;4429369;32;20116;-73
2023/01/25 02:30:08;;;;;;;1.03;0.97;;;2.70;99.90;;;;;;4427107;32;20072;-73
2023/01/25 02:32:34;;;;;;;1.00;1.00;;;2.70;99.90;;;;;;4422785;32;20422;-74
2023/01/25 02:34:59;;;;;;;0.80;0.80;;;2.80;99.90;;;;;;4423643;32;20139;-74
2023/01/25 02:37:25;;;;;;;2.17;0.68;;;2.90;99.90;;;;;;4429365;32;20061;-74
2023/01/25 02:39:51;;;;;;;0.80;0.80;;;3.00;99.90;;;;;;4427371;32;20074;-75
2023/01/25 02:42:17;;;;;;;1.25;1.15;;;3.10;99.90;;;;;;4413818;32;20117;-74
2023/01/25 02:44:43;;;;;;;1.12;0.90;;;3.00;99.90;;;;;;4417487;32;20156;-73
2023/01/25 02:47:08;;;;;;;2.85;1.87;;;2.90;99.90;;;;;;4425798;32;20537;-73
2023/01/25 02:49:35;;;;;;;24.08;1.92;;;2.90;99.90;;;;;;4429951;32;20101;-73
2023/01/25 02:52:01;;;;;;;0.70;0.70;;;2.90;99.90;;;;;;4432031;32;20094;-74
2023/01/25 02:54:27;;;;;;;0.70;0.70;;;3.00;99.90;;;;;;4430786;32;20085;-73
2023/01/25 02:56:52;;;;;;;0.80;0.80;;;2.90;99.90;;;;;;4430978;32;20078;-73
2023/01/25 02:59:19;;;;;;;2.85;1.20;;;2.90;99.90;;;;;;4429500;32;20085;-74
2023/01/25 03:01:45;;;;;;;0.80;0.80;;;2.90;99.90;;;;;;4429226;32;20077;-73
2023/01/25 03:04:11;;;;;;;1.70;0.85;;;3.00;99.90;;;;;;4419911;32;20069;-73
2023/01/25 03:06:37;;;;;;;1.52;0.85;;;3.10;99.90;;;;;;4431840;32;20327;-73
2023/01/25 03:09:04;;;;;;;1.73;0.95;;;3.20;99.90;;;;;;4430801;32;20584;-73
2023/01/25 03:11:29;;;;;;;1.65;1.02;;;3.00;99.90;;;;;;4415928;32;20089;-74
2023/01/25 03:13:55;;;;;;;0.60;0.60;;;3.00;99.90;;;;;;4415136;32;20061;-74
2023/01/25 03:16:20;;;;;;;0.80;0.80;;;2.90;99.90;;;;;;4428043;32;20086;-73
2023/01/25 03:18:46;;;;;;;1.75;1.50;;;3.00;99.90;;;;;;4431417;32;20066;-72
2023/01/25 03:21:18;;;;;;;0.82;0.82;;;3.00;99.90;;;;;;4434407;32;20085;-74
2023/01/25 03:23:45;;;;;;;0.88;0.88;;;3.10;99.90;;;;;;4435116;32;20084;-73
2023/01/25 03:26:15;;;;;;;1.27;1.08;;;3.00;99.90;;;;;;4431788;32;20097;-72
2023/01/25 03:28:41;;;;;;;0.68;0.68;;;2.90;99.90;;;;;;4432395;32;20435;-73
2023/01/25 03:31:08;;;;;;;0.80;0.80;;;3.00;99.90;;;;;;4434574;32;20149;-73
2023/01/25 03:33:34;;;;;;;2.47;1.58;;;3.00;99.90;;;;;;4419578;32;20080;-74
2023/01/25 03:36:00;;;;;;;5.65;1.35;;;3.00;99.90;;;;;;4428735;32;20114;-73
2023/01/25 03:38:26;;;;;;;0.82;0.82;;;3.00;99.90;;;;;;4429027;32;20615;-73
2023/01/25 03:40:51;;;;;;;0.47;0.47;;;2.90;99.90;;;;;;4423019;32;20503;-73
2023/01/25 03:43:17;;;;;;;0.40;0.40;;;2.90;99.90;;;;;;4415097;32;20116;-73
2023/01/25 03:45:43;;;;;;;1.05;0.93;;;2.90;99.90;;;;;;4424167;32;20112;-74
2023/01/25 03:48:08;;;;;;;0.60;0.60;;;2.90;99.90;;;;;;4430902;32;20057;-74
2023/01/25 03:50:34;;;;;;;0.65;0.65;;;3.00;99.90;;;;;;4430404;32;20136;-74
2023/01/25 03:53:05;;;;;;;0.70;0.70;;;3.00;99.90;;;;;;4431171;32;20130;-74
2023/01/25 03:55:32;;;;;;;0.68;0.68;;;2.90;99.90;;;;;;4430818;32;21079;-73
2023/01/25 03:57:57;;;;;;;0.60;0.60;;;3.00;99.90;;;;;;4429138;32;20507;-74
2023/01/25 04:00:23;;;;;;;1.52;1.23;;;3.00;99.90;;;;;;4432548;32;20124;-73
2023/01/25 04:02:48;;;;;;;0.60;0.60;;;3.00;99.90;;;;;;4427525;32;20469;-74
2023/01/25 04:05:14;;;;;;;0.68;0.68;;;3.00;99.90;;;;;;4428402;32;20065;-74
2023/01/25 04:07:39;;;;;;;1.15;0.90;;;3.00;99.90;;;;;;4431419;32;20089;-74
2023/01/25 04:10:05;;;;;;;0.50;0.50;;;3.10;99.90;;;;;;4428410;32;20547;-75
2023/01/25 04:12:31;;;;;;;0.90;0.90;;;3.00;99.90;;;;;;4415392;32;20077;-75
2023/01/25 04:14:57;;;;;;;1.40;1.00;;;2.80;99.90;;;;;;4422371;32;20125;-74
2023/01/25 04:17:22;;;;;;;0.60;0.60;;;2.90;99.90;;;;;;4429339;32;20073;-75
2023/01/25 04:19:48;;;;;;;0.40;0.40;;;3.00;99.90;;;;;;4430626;32;20089;-74
2023/01/25 04:22:15;;;;;;;0.55;0.55;;;3.00;99.90;;;;;;4432103;32;20157;-74
2023/01/25 04:24:40;;;;;;;1.35;1.25;;;3.00;99.90;;;;;;4432679;32;20077;-74
2023/01/25 04:27:06;;;;;;;3.85;2.15;;;3.00;99.90;;;;;;4430166;32;20073;-74
2023/01/25 04:29:31;;;;;;;0.68;0.68;;;3.00;99.90;;;;;;4432893;32;20061;-72
2023/01/25 04:31:57;;;;;;;4.12;1.05;;;2.90;99.90;;;;;;4428335;32;20102;-74
2023/01/25 04:34:23;;;;;;;0.70;0.70;;;2.80;99.90;;;;;;4422541;32;20520;-73
2023/01/25 04:36:48;;;;;;;0.50;0.50;;;2.90;99.90;;;;;;4429791;32;20069;-73
2023/01/25 04:39:14;;;;;;;0.40;0.40;;;2.90;99.90;;;;;;4429917;32;20541;-73
2023/01/25 04:41:39;;;;;;;0.60;0.60;;;2.90;99.90;;;;;;4417695;32;20535;-74
2023/01/25 04:44:05;;;;;;;0.65;0.65;;;3.00;99.90;;;;;;4414766;32;20077;-74
2023/01/25 04:46:30;;;;;;;1.58;1.48;;;2.90;99.90;;;;;;4430479;32;20080;-73
2023/01/25 04:48:55;;;;;;;1.27;1.17;;;2.80;99.90;;;;;;4429319;32;20134;-73
2023/01/25 04:51:21;;;;;;;0.85;0.85;;;2.70;99.90;;;;;;4432687;32;20054;-73
2023/01/25 04:53:46;;;;;;;0.60;0.60;;;2.70;99.90;;;;;;4432798;32;20066;-75
2023/01/25 04:56:12;;;;;;;1.10;1.00;;;2.80;99.90;;;;;;4432876;32;20061;-74
2023/01/25 04:58:37;;;;;;;0.95;0.85;;;2.80;99.90;;;;;;4432817;32;20152;-74
2023/01/25 05:01:04;;;;;;;2.55;1.30;;;2.80;99.90;;;;;;4431103;32;20101;-74
2023/01/25 05:03:29;;;;;;;0.45;0.45;;;2.70;99.90;;;;;;4421479;32;20066;-73
2023/01/25 05:05:55;;;;;;;0.50;0.50;;;2.80;99.90;;;;;;4413272;32;20094;-73
2023/01/25 05:08:20;;;;;;;0.47;0.47;;;2.80;99.90;;;;;;4429177;32;20478;-73
2023/01/25 05:10:46;;;;;;;0.50;0.50;;;2.90;99.90;;;;;;4420083;32;20069;-74
2023/01/25 05:13:11;;;;;;;0.75;0.75;;;2.90;99.90;;;;;;4416096;32;20791;-74
2023/01/25 05:15:37;;;;;;;0.70;0.70;;;2.90;99.90;;;;;;4419784;32;20065;-73
2023/01/25 05:18:03;;;;;;;0.52;0.52;;;2.90;99.90;;;;;;4432018;32;20085;-73
2023/01/25 05:20:28;;;;;;;4.85;1.30;;;2.90;99.90;;;;;;4428719;32;20124;-72
2023/01/25 05:22:54;;;;;;;0.50;0.50;;;2.90;99.90;;;;;;4399710;32;20137;-74
2023/01/25 05:27:20;;;;;;;0.50;0.50;;;2.90;99.90;;;;;;4394610;32;20214;-74
2023/01/25 05:28:06;;;;;;;0.62;0.62;;;2.90;99.90;;;;;;4374720;32;21010;-73
2023/01/25 05:30:32;;;;;;;0.65;0.65;;;2.90;99.90;;;;;;4389877;32;20175;-74
2023/01/25 05:32:57;;;;;;;1.10;1.00;;;2.90;99.90;;;;;;4382709;32;20200;-74
2023/01/25 05:35:23;;;;;;;0.60;0.60;;;2.90;99.90;;;;;;4389664;32;20349;-74
2023/01/25 05:37:48;;;;;;;0.70;0.70;;;2.90;99.90;;;;;;4417430;32;20124;-74
2023/01/25 05:40:14;;;;;;;0.70;0.70;;;2.80;99.90;;;;;;4425613;32;20089;-73
2023/01/25 05:42:40;;;;;;;0.43;0.43;;;2.80;99.90;;;;;;4418851;32;20544;-74
2023/01/25 05:45:07;;;;;;;0.77;0.77;;;2.80;99.90;;;;;;4421207;32;20422;-73
2023/01/25 05:47:32;;;;;;;0.60;0.60;;;2.90;99.90;;;;;;4415665;32;20104;-72
2023/01/25 05:49:58;;;;;;;0.80;0.80;;;2.90;99.90;;;;;;4427295;32;20084;-73
2023/01/25 05:52:23;;;;;;;0.70;0.70;;;2.80;99.90;;;;;;4411425;32;20656;-73
2023/01/25 05:54:49;;;;;;;0.40;0.40;;;2.70;99.90;;;;;;4392105;32;21139;-74
2023/01/25 05:57:14;;;;;;;0.70;0.70;;;2.80;99.90;;;;;;4413045;32;20070;-74
2023/01/25 05:59:40;;;;;;;1.17;0.93;;;2.80;99.90;;;;;;4428245;32;20084;-74
2023/01/25 06:02:05;;;;;;;1.00;0.95;;;2.80;99.90;;;;;;4414043;32;20211;-74
2023/01/25 06:04:31;;;;;;;4.07;1.45;;;2.80;99.90;;;;;;4389756;32;20176;-74
2023/01/25 06:06:57;;;;;;;0.70;0.70;;;2.70;99.90;;;;;;4391450;32;20606;-74
2023/01/25 06:09:22;;;;;;;0.70;0.70;;;2.70;99.90;;;;;;4383686;32;20417;-74
2023/01/25 06:11:48;;;;;;;0.65;0.65;;;2.60;99.90;;;;;;4375609;32;20057;-75
2023/01/25 06:14:14;;;;;;;0.55;0.55;;;2.70;99.90;;;;;;4365512;32;21062;-75
2023/01/25 06:16:40;;;;;;;9.32;1.45;;;2.70;99.90;;;;;;4371222;32;20085;-75
2023/01/25 06:19:06;;;;;;;0.60;0.60;;;2.70;99.90;;;;;;4335296;32;20403;-75
2023/01/25 06:21:35;;;;;;;1.25;0.90;;;2.70;99.90;;;;;;4350330;32;20367;-74
2023/01/25 06:24:02;;;;;;;1.20;1.10;;;2.70;99.90;;;;;;4299910;32;20490;-74
2023/01/25 06:26:29;;;;;;;0.60;0.60;;;2.70;99.90;;;;;;4331326;32;20319;-74
2023/01/25 06:28:54;;;;;;;0.75;0.75;;;2.80;99.90;;;;;;4343289;32;20953;-74
2023/01/25 06:31:20;;;;;;;1.10;1.10;;;2.80;99.90;;;;;;4318038;32;20104;-74
2023/01/25 06:33:49;;;;;;;1.40;1.20;;;2.80;99.90;;;;;;4353634;32;20121;-75
2023/01/25 06:36:17;;;;;;;1.05;1.00;;;2.80;99.90;;;;;;4356789;32;20101;-74
2023/01/25 06:38:46;;;;;;;0.75;0.75;;;2.70;99.90;;;;;;4369632;32;20241;-74
2023/01/25 06:41:14;;;;;;;2.05;1.27;;;2.80;99.90;;;;;;4364497;32;20228;-74
2023/01/25 06:43:39;;;;;;;0.75;0.75;;;2.80;99.90;;;;;;4382006;32;20554;-74
2023/01/25 06:46:08;;;;;;;0.50;0.50;;;2.70;99.90;;;;;;4380666;32;20385;-74
2023/01/25 06:48:34;;;;;;;0.60;0.60;;;2.60;99.90;;;;;;4387749;32;20090;-74
2023/01/25 06:51:05;;;;;;;0.55;0.55;;;2.60;99.90;;;;;;4366716;32;20281;-74
2023/01/25 06:53:33;;;;;;;0.55;0.55;;;2.60;99.90;;;;;;4386997;32;20307;-74
2023/01/25 06:56:02;;;;;;;0.70;0.70;;;2.60;99.90;;;;;;4376773;32;20212;-74
2023/01/25 06:58:28;;;;;;;11.38;1.83;;;2.40;99.90;;;;;;4384712;32;20239;-75
2023/01/25 07:00:59;;;;;;;1.33;1.23;;;2.50;99.90;;;;;;4358840;32;20104;-74
2023/01/25 07:03:25;;;;;;;0.50;0.50;;;2.50;99.90;;;;;;4346314;32;20535;-75
2023/01/25 07:05:50;;;;;;;0.95;0.95;;;2.60;99.90;;;;;;4356985;32;21351;-74
2023/01/25 07:08:17;;;;;;;0.60;0.60;;;2.60;99.90;;;;;;4370879;32;20415;-73
2023/01/25 07:10:43;;;;;;;0.62;0.62;;;2.60;99.90;;;;;;4383036;32;20089;-74
2023/01/25 07:13:08;;;;;;;0.60;0.60;;;2.60;99.90;;;;;;4378771;32;21267;-74
2023/01/25 07:15:36;;;;;;;0.70;0.70;;;2.60;99.90;;;;;;4380322;32;20519;-73
2023/01/25 07:18:01;;;;;;;1.00;1.00;;;2.50;99.90;;;;;;4381331;32;20262;-73
2023/01/25 07:20:27;;;;;;;1.27;1.08;;;2.60;99.90;;;;;;4356000;32;20097;-74
2023/01/25 07:22:52;;;;;;;0.57;0.57;;;2.50;99.90;;;;;;4370834;32;20142;-74
2023/01/25 07:25:18;;;;;;;1.67;0.77;;;2.40;99.90;;;;;;4377119;32;20498;-74
2023/01/25 07:27:43;;;;;;;0.60;0.60;;;2.50;99.90;;;;;;4377649;32;21204;-74
2023/01/25 07:30:10;;;;;;;0.50;0.50;;;2.60;99.90;;;;;;4364330;32;20183;-74
2023/01/25 07:32:36;;;;;;;1.00;1.00;;;2.40;99.90;;;;;;4365054;32;20242;-74
2023/01/25 07:35:02;;;;;;;0.75;0.75;;;2.50;99.90;;;;;;4361679;32;20537;-74
2023/01/25 07:37:28;;;;;;;2.80;1.52;;;2.50;99.90;;;;;;4367257;32;20545;-73
2023/01/25 07:39:57;;;;;;;1.65;1.27;;;2.50;99.90;;;;;;4387968;32;20356;-74
2023/01/25 07:42:22;;;;;;;1.10;1.05;;;2.50;99.90;;;;;;4375408;32;20097;-74
2023/01/25 07:44:48;;;;;;;1.35;1.25;;;2.60;99.90;;;;;;4371730;32;20086;-74
2023/01/25 07:47:14;;;;;;;0.95;0.95;;;2.60;99.90;;;;;;4367589;32;21841;-74
2023/01/25 07:49:39;;;;;;;1.12;1.02;;;2.70;99.90;;;;;;4355208;32;20254;-74
2023/01/25 07:52:05;;;;;;;1.17;1.00;;;2.70;99.90;;;;;;4365881;32;20118;-74
2023/01/25 07:54:32;;;;;;;1.05;0.95;;;2.80;99.90;;;;;;4369272;32;20089;-74
2023/01/25 07:56:58;;;;;;;0.85;0.85;;;2.80;99.90;;;;;;4369713;32;20416;-74
2023/01/25 07:59:24;;;;;;;1.30;0.98;;;2.70;99.90;;;;;;4360413;32;20152;-74
2023/01/25 08:01:49;;;;;;;1.30;1.20;;;2.60;99.90;;;;;;4368596;32;20098;-75
2023/01/25 08:04:15;;;;;;;1.42;1.33;;;2.60;99.90;;;;;;4354983;32;21023;-74
2023/01/25 08:06:40;;;;;;;1.15;1.05;;;2.50;99.90;;;;;;4379577;32;20101;-74
2023/01/25 08:09:11;;;;;;;2.90;1.17;;;2.50;99.90;;;;;;4378697;32;20112;-74
2023/01/25 08:11:36;;;;;;;0.85;0.85;;;2.50;99.90;;;;;;4376769;32;20869;-73
2023/01/25 08:14:02;;;;;;;0.95;0.95;;;2.30;99.90;;;;;;4379599;32;20108;-74
2023/01/25 08:16:30;;;;;;;0.65;0.65;;;2.40;99.90;;;;;;4380572;32;20588;-74
2023/01/25 08:18:59;;;;;;;1.23;1.10;;;2.30;99.90;;;;;;4372798;32;20093;-73
2023/01/25 08:21:28;;;;;;;2.08;1.52;;;2.40;99.90;;;;;;4374937;32;20278;-73
2023/01/25 08:23:58;;;;;;;1.65;1.35;;;2.50;99.90;;;;;;4374416;32;20200;-74
2023/01/25 08:26:24;;;;;;;1.40;0.93;;;2.50;99.90;;;;;;4368488;32;20116;-75
2023/01/25 08:28:52;;;;;;;0.90;0.90;;;2.60;99.90;;;;;;4356523;32;20556;-74
2023/01/25 08:31:21;;;;;;;1.65;0.85;;;2.60;99.90;;;;;;4354924;32;20317;-74
2023/01/25 08:33:47;;;;;;;1.12;1.02;;;2.40;99.90;;;;;;4351759;32;21120;-75
2023/01/25 08:36:15;;;;;;;0.88;0.88;;;2.40;99.90;;;;;;4388164;32;20084;-75
2023/01/25 08:38:40;;;;;;;1.10;1.05;;;2.40;99.90;;;;;;4407678;32;20078;-76
2023/01/25 08:41:16;;;;;;;3.40;1.70;;;2.30;99.90;;;;;;4419938;32;20249;-75
2023/01/25 08:43:43;;;;;;;0.50;0.50;;;2.20;99.90;;;;;;4415783;32;20268;-75
2023/01/25 08:46:09;;;;;;;1.75;1.30;;;2.20;99.90;;;;;;4404043;32;20877;-73
2023/01/25 08:48:35;;;;;;;0.50;0.50;;;2.20;99.90;;;;;;4368539;32;20090;-75
2023/01/25 08:51:00;;;;;;;2.15;1.33;;;2.30;99.90;;;;;;4375944;32;20113;-75
2023/01/25 08:53:27;;;;;;;3.60;1.85;;;2.30;99.90;;;;;;4382661;32;20092;-74
2023/01/25 08:55:53;;;;;;;14.25;1.92;;;2.30;99.90;;;;;;4384547;32;20172;-75
2023/01/25 08:58:21;;;;;;;4.15;1.42;;;2.30;99.90;;;;;;4385180;32;20785;-74
2023/01/25 09:00:47;;;;;;;0.73;0.73;;;2.30;99.90;;;;;;4365126;32;20307;-75
2023/01/25 09:03:13;;;;;;;0.62;0.62;;;2.30;99.90;;;;;;4370947;32;20121;-74
2023/01/25 09:05:40;;;;;;;1.15;0.82;;;2.20;99.90;;;;;;4376398;32;21439;-74
2023/01/25 09:08:08;;;;;;;0.70;0.70;;;2.30;99.90;;;;;;4391563;32;20449;-75
2023/01/25 09:10:34;;;;;;;0.73;0.73;;;2.20;99.90;;;;;;4398192;32;20369;-74
2023/01/25 09:13:00;;;;;;;0.60;0.60;;;2.10;99.90;;;;;;4394889;32;20089;-74
2023/01/25 09:15:26;;;;;;;0.60;0.60;;;2.10;99.90;;;;;;4388837;32;20093;-73
2023/01/25 09:17:54;;;;;;;0.60;0.60;;;2.00;99.90;;;;;;4389503;32;20122;-74
2023/01/25 09:20:21;;;;;;;3.37;1.52;;;2.00;99.90;;;;;;4375350;32;20108;-73
2023/01/25 09:22:46;;;;;;;0.75;0.75;;;2.00;99.90;;;;;;4382823;32;21057;-74
2023/01/25 09:25:14;;;;;;;1.48;0.95;;;1.90;99.90;;;;;;4377109;32;20446;-74
2023/01/25 09:27:40;;;;;;;0.60;0.60;;;1.90;99.90;;;;;;4379295;32;20199;-74
2023/01/25 09:30:08;;;;;;;0.90;0.82;;;1.90;99.90;;;;;;4373420;32;20424;-74
2023/01/25 09:32:33;;;;;;;0.95;0.95;;;2.00;99.90;;;;;;4366532;32;20233;-73
2023/01/25 09:34:58;;;;;;;0.88;0.88;;;2.10;99.90;;;;;;4362661;32;20113;-74
2023/01/25 09:37:24;;;;;;;0.45;0.45;;;2.10;99.90;;;;;;4381282;32;20678;-74
2023/01/25 09:39:50;;;;;;;0.47;0.47;;;2.10;99.90;;;;;;4385253;32;20081;-73
2023/01/25 09:42:43;;;;;;;0.88;0.88;;;2.10;99.90;;;;;;4391855;32;20560;-74
2023/01/25 09:45:22;;;;;;;1.55;1.42;;;2.00;99.90;;;;;;4365048;32;20410;-74
2023/01/25 09:48:13;;;;;;;1.52;1.42;;;1.90;99.90;;;;;;4392764;32;20228;-73
2023/01/25 09:51:10;;;;;;;1.62;1.50;;;2.00;99.90;;;;;;4366724;32;20442;-73
2023/01/25 09:53:47;;;;;;;1.45;1.35;;;2.10;99.90;;;;;;4367313;32;21451;-74
2023/01/25 09:56:25;;;;;;;1.48;1.37;;;2.20;99.90;;;;;;4382996;32;21617;-74
2023/01/25 09:58:56;;;;;;;13.32;2.50;;;2.10;99.90;;;;;;4386079;32;20128;-73
2023/01/25 10:01:25;;;;;;;1.33;1.23;;;2.10;99.90;;;;;;4380681;32;20077;-74
2023/01/25 10:04:00;;;;;;;0.40;0.40;;;2.10;99.90;;;;;;4367479;32;20142;-74
2023/01/25 10:06:36;;;;;;;4.53;1.30;;;2.10;99.90;;;;;;4389173;32;20238;-73
2023/01/25 10:09:26;;;;;;;1.45;1.20;;;2.10;99.90;;;;;;4403594;32;20078;-73
2023/01/25 10:11:52;;;;;;;3.92;2.95;;;2.10;99.90;;;;;;4373505;32;20106;-73
2023/01/25 10:14:20;;;;;;;1.12;1.08;;;2.10;99.90;;;;;;4380494;32;20921;-73
2023/01/25 10:16:48;;;;;;;1.65;1.02;;;2.10;99.90;;;;;;4379094;32;21330;-74
2023/01/25 10:19:54;;;;;;;0.85;0.85;;;2.10;99.90;;;;;;4385087;32;20143;-74
2023/01/25 10:22:23;;;;;;;1.42;1.08;;;2.20;99.90;;;;;;4338922;32;22061;-74
2023/01/25 10:24:52;;;;;;;1.27;1.17;;;2.20;99.90;;;;;;4360365;32;20122;-75
2023/01/25 10:27:39;;;;;;;3.87;1.80;;;2.10;99.90;;;;;;4385684;32;20153;-74
2023/01/25 10:30:27;;;;;;;1.00;1.00;;;2.00;99.90;;;;;;4348709;32;20168;-75
2023/01/25 10:32:58;;;;;;;0.60;0.60;;;2.00;99.90;;;;;;4350796;32;20284;-76
2023/01/25 10:35:29;;;;;;;1.50;1.23;;;2.10;99.90;;;;;;4357841;32;20782;-74
2023/01/25 10:38:00;;;;;;;4.03;1.95;;;2.10;99.90;;;;;;4399409;32;20164;-75
2023/01/25 10:40:30;;;;;;;1.37;1.27;;;2.10;99.90;;;;;;4403979;32;20308;-75
2023/01/25 10:43:01;;;;;;;1.12;1.02;;;2.20;99.90;;;;;;4404692;32;20369;-75
2023/01/25 10:45:27;;;;;;;1.83;1.65;;;2.10;99.90;;;;;;4388808;32;20426;-74
2023/01/25 10:48:01;;;;;;;1.75;1.33;;;2.10;99.90;;;;;;4378967;32;20937;-74
2023/01/25 10:50:45;;;;;;;1.15;1.05;;;2.10;99.90;;;;;;4377212;32;20101;-74
2023/01/25 10:53:24;;;;;;;0.57;0.57;;;2.10;99.90;;;;;;4366279;32;20159;-76
2023/01/25 10:56:08;;;;;;;1.08;0.98;;;2.00;99.90;;;;;;4384523;32;20117;-76
2023/01/25 10:58:37;;;;;;;2.80;1.95;;;2.20;99.90;;;;;;4390267;32;20157;-74
2023/01/25 11:01:07;;;;;;;0.85;0.85;;;2.20;99.90;;;;;;4389581;32;20252;-75
2023/01/25 11:03:35;;;;;;;1.23;1.12;;;2.20;99.90;;;;;;4370024;32;20356;-75
2023/01/25 11:06:00;;;;;;;0.80;0.80;;;2.10;99.90;;;;;;4367295;32;20828;-75
2023/01/25 11:08:34;;;;;;;1.92;1.75;;;2.10;99.90;;;;;;4401947;32;20146;-73
2023/01/25 11:11:21;;;;;;;5.12;1.80;;;2.20;99.90;;;;;;4394510;32;20086;-73
2023/01/25 11:13:47;;;;;;;6.72;2.37;;;2.20;99.90;;;;;;4386907;32;20097;-73
2023/01/25 11:16:24;;;;;;;3.33;2.58;;;2.10;99.90;;;;;;4374595;32;20891;-73
2023/01/25 11:18:53;;;;;;;0.85;0.85;;;2.00;99.90;;;;;;4361895;32;20098;-73
2023/01/25 11:21:22;;;;;;;3.25;1.25;;;1.90;99.90;;;;;;4377532;32;20188;-74
2023/01/25 11:24:09;;;;;;;1.10;1.10;;;1.90;99.90;;;;;;4389193;32;20238;-74
2023/01/25 11:26:37;;;;;;;1.05;1.02;;;1.90;99.90;;;;;;4382785;32;21686;-75
2023/01/25 11:29:14;;;;;;;1.42;1.33;;;1.90;99.90;;;;;;4390440;32;21580;-73
2023/01/25 11:31:44;;;;;;;0.73;0.73;;;2.00;99.90;;;;;;4395123;32;20290;-74
2023/01/25 11:34:13;;;;;;;1.60;1.50;;;1.80;99.90;;;;;;4391671;32;20256;-73
2023/01/25 11:36:53;;;;;;;6.62;2.72;;;2.00;99.90;;;;;;4407983;32;20081;-73
2023/01/25 11:39:40;;;;;;;1.85;1.35;;;2.00;99.90;;;;;;4409480;32;20468;-73
2023/01/25 11:42:31;;;;;;;3.65;1.85;;;2.00;99.90;;;;;;4386643;32;110535;-73
2023/01/25 11:45:28;;;;;;;8.98;1.33;;;1.90;99.90;;;;;;4388442;32;20201;-74
2023/01/25 11:48:15;;;;;;;2.92;1.70;;;1.90;99.90;;;;;;4383180;32;20165;-73
2023/01/25 11:50:46;;;;;;;1.45;1.08;;;1.90;99.90;;;;;;4371771;32;20329;-75
2023/01/25 11:53:22;;;;;;;2.42;1.85;;;1.90;99.90;;;;;;4387500;32;20121;-73
2023/01/25 11:55:54;;;;;;;1.15;1.05;;;2.10;99.90;;;;;;4375294;32;20332;-74
2023/01/25 11:58:49;;;;;;;0.90;0.90;;;2.10;99.90;;;;;;4358797;32;20678;-73
2023/01/25 12:01:37;;;;;;;0.85;0.85;;;2.00;99.90;;;;;;4366564;32;20101;-73
2023/01/25 12:04:31;;;;;;;2.62;1.77;;;1.90;99.90;;;;;;4356656;32;20228;-74
2023/01/25 12:07:02;;;;;;;1.83;1.65;;;2.00;99.90;;;;;;4369159;32;20255;-73
2023/01/25 12:09:52;;;;;;;0.70;0.70;;;2.10;99.90;;;;;;4393580;32;20208;-74
2023/01/25 12:12:28;;;;;;;0.90;0.90;;;2.00;99.90;;;;;;4378771;32;20973;-75
2023/01/25 12:15:22;;;;;;;4.45;1.50;;;2.00;99.90;;;;;;4407331;32;20242;-75
2023/01/25 12:18:04;;;;;;;0.82;0.82;;;2.00;99.90;;;;;;4396979;32;20217;-76
2023/01/25 12:21:00;;;;;;;0.85;0.85;;;1.90;99.90;;;;;;4403166;32;21315;-74
2023/01/25 12:23:35;;;;;;;12.75;3.80;;;2.00;99.90;;;;;;4394528;32;20223;-74
2023/01/25 12:26:14;;;;;;;15.57;8.30;;;2.00;99.90;;;;;;4404595;32;20122;-74
2023/01/25 12:28:53;;;;;;;12.95;4.95;;;1.90;99.90;;;;;;4408620;32;20506;-74
2023/01/25 12:31:25;;;;;;;0.75;0.75;;;2.00;99.90;;;;;;4391923;32;20492;-74
2023/01/25 12:33:58;;;;;;;0.95;0.95;;;2.00;99.90;;;;;;4372813;32;20340;-74
2023/01/25 12:36:29;;;;;;;2.20;1.55;;;2.10;99.90;;;;;;4384263;32;21038;-73
2023/01/25 12:39:05;;;;;;;0.88;0.88;;;2.00;99.90;;;;;;4398409;32;20109;-73
2023/01/25 12:41:41;;;;;;;0.68;0.68;;;1.90;99.90;;;;;;4373065;32;21362;-76
2023/01/25 12:44:15;;;;;;;1.08;0.88;;;1.90;99.90;;;;;;4363087;32;20093;-72
2023/01/25 12:47:03;;;;;;;4.60;2.28;;;1.90;99.90;;;;;;4373367;32;20354;-74
2023/01/25 12:49:40;;;;;;;0.80;0.80;;;1.80;99.90;;;;;;4336897;32;20105;-73
2023/01/25 12:52:14;;;;;;;0.88;0.88;;;1.80;99.90;;;;;;4372001;32;20779;-75
2023/01/25 12:54:44;;;;;;;1.35;1.25;;;1.80;99.90;;;;;;4381891;32;20968;-73
2023/01/25 12:57:24;;;;;;;3.25;1.65;;;1.90;99.90;;;;;;4380978;32;20125;-72
2023/01/25 13:00:01;;;;;;;1.40;1.30;;;1.90;99.90;;;;;;4369002;32;20441;-73
2023/01/25 13:03:02;;;;;;;1.25;0.93;;;1.80;99.90;;;;;;4378467;32;20156;-73
2023/01/25 13:05:40;;;;;;;1.55;1.25;;;1.80;99.90;;;;;;4353848;32;20196;-73
2023/01/25 13:08:46;;;;;;;0.93;0.93;;;1.80;99.90;;;;;;4388032;32;20105;-73
2023/01/25 13:11:33;;;;;;;1.12;1.05;;;1.90;99.90;;;;;;4375894;32;20462;-73